Time;durP1;ratioP1;P1;durP2;ratioP2;P2;SDS_P1;SDS_P2;PMS_P1;PMS_P2;Temp;Humidity;BMP_temperature;BMP_pressure;BME280_temperature;BME280_humidity;BME280_pressure;Samples;Min_cycle;Max_cycle;Signal;HPM_P1;HPM_P2
2022/10/05 00:04:23;;;;;;;16.87;6.87;;;;;;;10.66;100.00;101192.44;5247017;56;1143295;-69
2022/10/05 00:09:32;;;;;;;15.37;7.20;;;;;;;10.70;100.00;101182.47;5247427;56;1143217;-68
2022/10/05 00:14:38;;;;;;;15.63;6.77;;;;;;;10.68;100.00;101199.80;5214792;56;1143211;-71
2022/10/05 00:19:45;;;;;;;15.27;7.37;;;;;;;10.70;100.00;101180.67;5118660;57;1143516;-68
2022/10/05 00:25:00;;;;;;;14.80;7.43;;;;;;;10.72;100.00;101180.57;5140545;56;1143700;-69
2022/10/05 00:30:19;;;;;;;14.80;7.67;;;;;;;10.71;100.00;101159.03;5156168;56;1143170;-69
2022/10/05 00:35:28;;;;;;;15.20;6.83;;;;;;;10.71;100.00;101161.20;5134103;57;1143457;-68
2022/10/05 00:41:03;;;;;;;16.73;7.07;;;;;;;10.72;100.00;101152.31;5129942;57;1143257;-69
2022/10/05 00:46:18;;;;;;;15.87;6.97;;;;;;;10.70;100.00;101167.44;5102934;56;1143300;-66
2022/10/05 00:51:34;;;;;;;23.87;8.53;;;;;;;10.68;100.00;101169.84;5064845;58;1143375;-70
2022/10/05 00:57:00;;;;;;;17.33;7.50;;;;;;;10.69;100.00;101157.84;4988592;58;1143349;-69
2022/10/05 01:02:13;;;;;;;20.63;8.43;;;;;;;10.73;100.00;101151.37;5069173;57;1141049;-67
2022/10/05 01:07:49;;;;;;;20.23;7.70;;;;;;;10.75;100.00;101151.27;5120466;57;1141120;-68
2022/10/05 01:13:39;;;;;;;17.33;7.87;;;;;;;10.79;100.00;101132.44;5120185;57;1141211;-73
2022/10/05 01:19:13;;;;;;;16.00;6.70;;;;;;;10.88;100.00;101141.05;5105578;56;1143162;-69
2022/10/05 01:25:01;;;;;;;14.20;6.60;;;;;;;10.92;100.00;101143.88;5135834;56;1143578;-69
2022/10/05 01:30:14;;;;;;;17.30;6.33;;;;;;;10.91;100.00;101136.88;5136155;56;1143559;-70
2022/10/05 01:36:01;;;;;;;18.00;7.17;;;;;;;10.88;100.00;101132.27;5169756;56;1143686;-71
2022/10/05 01:41:28;;;;;;;16.30;6.12;;;;;;;10.87;100.00;101126.61;5190803;56;1143382;-70
2022/10/05 01:46:54;;;;;;;13.90;6.57;;;;;;;10.87;100.00;101134.55;5260937;55;1143329;-65
2022/10/05 01:52:25;;;;;;;13.13;6.35;;;;;;;10.88;100.00;101123.01;5147490;56;1141150;-67
2022/10/05 01:57:47;;;;;;;18.07;6.33;;;;;;;10.84;100.00;101105.67;5221780;56;1141098;-67
2022/10/05 02:03:09;;;;;;;10.67;5.03;;;;;;;10.83;100.00;101102.66;5140187;56;1141110;-69
2022/10/05 02:08:28;;;;;;;15.07;5.43;;;;;;;10.84;100.00;101106.52;5185738;57;1141108;-68
2022/10/05 02:13:43;;;;;;;15.60;5.73;;;;;;;10.86;100.00;101097.13;5158569;57;1139100;-70
2022/10/05 02:18:56;;;;;;;12.27;5.27;;;;;;;10.83;100.00;101093.39;5132316;57;1143182;-64
2022/10/05 02:24:12;;;;;;;13.28;6.08;;;;;;;10.82;100.00;101089.05;5132168;57;1143212;-68
2022/10/05 02:29:23;;;;;;;9.77;5.27;;;;;;;10.81;100.00;101100.11;5132012;57;1143242;-66
2022/10/05 02:34:37;;;;;;;10.20;5.77;;;;;;;10.83;100.00;101100.01;5132076;57;1141114;-67
2022/10/05 02:40:26;;;;;;;7.80;5.20;;;;;;;10.78;100.00;101102.96;5131816;57;1143196;-70
2022/10/05 02:45:46;;;;;;;13.10;5.43;;;;;;;10.76;100.00;101098.25;5203197;56;1141166;-66
2022/10/05 02:51:16;;;;;;;12.53;5.57;;;;;;;10.74;100.00;101092.69;5222340;56;1143137;-69
2022/10/05 02:56:48;;;;;;;11.43;5.10;;;;;;;10.71;100.00;101087.13;5223366;56;1143155;-67
2022/10/05 03:02:41;;;;;;;10.23;5.40;;;;;;;10.71;100.00;101089.77;5222003;56;1143208;-68
2022/10/05 03:08:07;;;;;;;9.30;4.90;;;;;;;10.67;100.00;101090.11;5222172;56;1141121;-70
2022/10/05 03:13:35;;;;;;;12.43;5.27;;;;;;;10.66;100.00;101093.23;5219298;56;1139136;-67
2022/10/05 03:19:14;;;;;;;10.07;4.30;;;;;;;10.66;100.00;101102.49;5163791;57;1141196;-71
2022/10/05 03:24:45;;;;;;;9.43;5.00;;;;;;;10.63;100.00;101105.34;5191344;57;1143174;-68
2022/10/05 03:30:02;;;;;;;9.33;5.07;;;;;;;10.60;100.00;101092.80;5190642;56;1141136;-69
2022/10/05 03:35:34;;;;;;;13.13;5.67;;;;;;;10.56;100.00;101089.03;5187736;57;1141442;-71
2022/10/05 03:41:06;;;;;;;15.13;5.40;;;;;;;10.51;100.00;101093.81;5121319;57;1143460;-66
2022/10/05 03:46:37;;;;;;;10.67;4.83;;;;;;;10.49;100.00;101078.99;5130260;57;1142674;-67
2022/10/05 03:52:02;;;;;;;13.90;5.73;;;;;;;10.51;100.00;101076.62;5087527;57;1143662;-67
2022/10/05 03:57:21;;;;;;;11.27;4.97;;;;;;;10.51;100.00;101076.62;5154626;57;1143324;-68
2022/10/05 04:02:34;;;;;;;14.60;5.33;;;;;;;10.53;100.00;101079.16;5156197;56;1141303;-70
2022/10/05 04:08:07;;;;;;;14.00;4.27;;;;;;;10.45;100.00;101069.56;5222154;56;1141086;-69
2022/10/05 04:13:30;;;;;;;10.07;4.30;;;;;;;10.40;100.00;101065.05;5148354;56;1141365;-71
2022/10/05 04:18:56;;;;;;;9.07;3.80;;;;;;;10.31;100.00;101069.19;5053117;57;1141134;-66
2022/10/05 04:24:21;;;;;;;12.47;3.93;;;;;;;10.24;100.00;101079.78;5136168;57;1137215;-67
2022/10/05 04:29:59;;;;;;;7.87;4.40;;;;;;;10.17;100.00;101079.81;5135658;56;1143418;-67
2022/10/05 04:35:29;;;;;;;7.17;4.43;;;;;;;10.13;100.00;101069.91;5135786;56;1141107;-72
2022/10/05 04:40:52;;;;;;;8.47;5.33;;;;;;;10.10;100.00;101056.89;5140012;56;1141118;-66
2022/10/05 04:46:39;;;;;;;11.50;3.53;;;;;;;10.01;100.00;101073.38;5211476;56;1141101;-66
2022/10/05 04:52:18;;;;;;;13.47;4.57;;;;;;;9.97;100.00;101072.34;5215149;56;1143116;-67
2022/10/05 04:57:36;;;;;;;10.20;4.40;;;;;;;9.92;100.00;101075.79;5162922;56;1141163;-71
2022/10/05 05:02:58;;;;;;;8.93;4.77;;;;;;;9.87;100.00;101069.00;5191329;56;1139120;-70
2022/10/05 05:08:30;;;;;;;9.37;4.93;;;;;;;9.84;100.00;101066.56;5202915;56;1136908;-73
2022/10/05 05:14:14;;;;;;;11.90;4.97;;;;;;;9.83;100.00;101068.83;5206797;56;1136854;-68
2022/10/05 05:19:52;;;;;;;7.45;4.95;;;;;;;9.85;100.00;101075.34;5235256;56;21163;-64
2022/10/05 05:25:37;;;;;;;9.17;4.60;;;;;;;9.85;100.00;101074.02;5127607;57;1134968;-67
2022/10/05 05:31:21;;;;;;;12.90;5.60;;;;;;;9.86;100.00;101075.71;5181022;56;1139234;-65
2022/10/05 05:36:43;;;;;;;7.83;4.40;;;;;;;9.88;100.00;101084.39;5169302;56;1141190;-69
2022/10/05 05:42:16;;;;;;;8.83;4.10;;;;;;;9.87;100.00;101079.58;5225501;55;1139033;-63
2022/10/05 05:47:36;;;;;;;10.70;4.72;;;;;;;9.86;100.00;101074.39;5282900;55;1139011;-67
2022/10/05 05:52:55;;;;;;;8.73;4.43;;;;;;;9.92;100.00;101081.08;5244453;55;1141205;-67
2022/10/05 05:58:14;;;;;;;9.90;4.27;;;;;;;9.94;100.00;101076.51;5212283;56;1137057;-70
2022/10/05 06:03:43;;;;;;;9.00;4.83;;;;;;;10.00;100.00;101070.36;5221731;56;1136917;-69
2022/10/05 06:08:55;;;;;;;9.83;4.57;;;;;;;10.10;100.00;101079.36;5221578;56;1139093;-69
2022/10/05 06:14:10;;;;;;;5.77;3.93;;;;;;;10.27;100.00;101065.05;5221067;56;1139110;-70
2022/10/05 06:19:21;;;;;;;7.83;4.37;;;;;;;10.45;100.00;101064.28;5221752;56;1139062;-69
2022/10/05 06:24:37;;;;;;;11.63;4.60;;;;;;;10.54;100.00;101057.05;5310379;55;1137065;-69
2022/10/05 06:30:08;;;;;;;10.77;4.90;;;;;;;10.57;100.00;101054.17;5208860;55;1143164;-70
2022/10/05 06:35:32;;;;;;;9.03;4.77;;;;;;;10.58;100.00;101045.28;5135738;57;1143327;-66
2022/10/05 06:41:14;;;;;;;7.62;3.98;;;;;;;10.67;100.00;101038.53;5136005;57;1141376;-68
2022/10/05 06:46:55;;;;;;;10.13;4.37;;;;;;;10.73;100.00;101042.90;5217359;56;1141111;-69
2022/10/05 06:52:15;;;;;;;6.40;4.43;;;;;;;10.82;100.00;101036.13;5228226;55;1143189;-68
2022/10/05 06:57:36;;;;;;;7.17;4.03;;;;;;;10.93;100.00;101037.06;5253579;55;1141041;-63
2022/10/05 07:02:50;;;;;;;9.63;4.70;;;;;;;11.07;100.00;101037.40;5311036;55;1141109;-68
2022/10/05 07:08:03;;;;;;;7.90;4.23;;;;;;;11.25;100.00;101042.70;5245807;56;1141221;-69
2022/10/05 07:13:38;;;;;;;7.53;3.40;;;;;;;11.40;100.00;101027.98;5103476;57;1139330;-65
2022/10/05 07:19:41;;;;;;;5.57;3.40;;;;;;;11.56;100.00;101037.35;5097556;57;1139270;-69
2022/10/05 07:25:12;;;;;;;10.30;3.40;;;;;;;11.69;100.00;101054.98;5095090;57;21161;-70
2022/10/05 07:30:19;;;;;;;11.17;3.90;;;;;;;11.77;100.00;101063.23;5092003;56;1138930;-67
2022/10/05 07:41:18;;;;;;;5.00;3.40;;;;;;;11.88;100.00;101067.28;5149750;57;1143236;-68
2022/10/05 07:46:43;;;;;;;9.33;3.40;;;;;;;11.95;100.00;101080.43;5216576;56;1141115;-66
2022/10/05 07:52:01;;;;;;;10.33;3.90;;;;;;;12.02;100.00;101068.91;5179300;56;1141109;-66
2022/10/05 07:57:42;;;;;;;5.87;3.60;;;;;;;12.10;100.00;101071.81;5050755;58;1143266;-67
2022/10/05 08:03:07;;;;;;;14.03;4.30;;;;;;;12.21;100.00;101067.41;5136279;57;1141051;-67
2022/10/05 08:08:23;;;;;;;9.97;3.47;;;;;;;12.35;100.00;101051.77;5136189;57;1143207;-63
2022/10/05 08:13:41;;;;;;;6.03;2.97;;;;;;;12.51;100.00;101047.46;5144377;57;1139105;-65
2022/10/05 08:18:55;;;;;;;6.63;3.47;;;;;;;12.63;100.00;101050.00;5184610;57;1138997;-67
2022/10/05 08:24:24;;;;;;;;;;;;;;;12.67;100.00;101047.48;5224031;56;1139056;-67
2022/10/05 08:29:53;;;;;;;3.20;2.33;;;;;;;12.78;100.00;101049.28;5224771;56;976295;-67
2022/10/05 08:35:24;;;;;;;4.20;2.80;;;;;;;13.03;100.00;101062.31;5222176;56;1134894;-67
2022/10/05 08:41:15;;;;;;;5.50;2.93;;;;;;;13.32;100.00;101067.98;5128843;56;1141116;-65
2022/10/05 08:46:31;;;;;;;4.87;2.00;;;;;;;13.57;100.00;101059.38;5218240;56;1140953;-70
2022/10/05 08:52:04;;;;;;;5.50;2.83;;;;;;;13.91;96.87;101053.43;5206488;56;1141085;-67
2022/10/05 08:57:43;;;;;;;5.77;2.67;;;;;;;13.91;96.87;101053.43;5135532;57;1139013;-63
2022/10/05 09:03:27;;;;;;;10.47;3.10;;;;;;;14.13;98.42;101052.02;5135608;57;1139012;-72
2022/10/05 09:08:55;;;;;;;3.23;2.10;;;;;;;14.20;95.88;101043.05;5136711;57;1139017;-70
2022/10/05 09:14:24;;;;;;;3.33;2.07;;;;;;;14.31;97.06;101025.67;5150166;56;1136939;-66
2022/10/05 09:19:48;;;;;;;6.00;2.43;;;;;;;14.46;95.53;101016.90;5197165;56;1137001;-72
2022/10/05 09:25:17;;;;;;;6.03;2.27;;;;;;;14.59;96.08;101021.52;5181765;57;1137035;-70
2022/10/05 09:30:47;;;;;;;13.27;2.63;;;;;;;14.79;92.59;101021.97;5191142;57;1139046;-73
2022/10/05 09:36:14;;;;;;;4.33;3.00;;;;;;;14.89;93.34;101014.02;5182007;56;1141065;-69
2022/10/05 09:42:00;;;;;;;4.83;2.87;;;;;;;15.03;90.98;101018.47;5185479;56;1139055;-73
2022/10/05 09:47:25;;;;;;;9.33;2.70;;;;;;;15.10;90.30;101006.80;5221265;56;1139031;-72
2022/10/05 09:52:49;;;;;;;11.00;7.60;;;;;;;15.24;90.64;100992.25;5200896;56;1139101;-73
2022/10/05 09:58:29;;;;;;;9.43;3.97;;;;;;;15.44;91.25;100982.78;5131575;56;1141168;-71
2022/10/05 10:04:18;;;;;;;8.47;3.70;;;;;;;15.60;89.63;100984.94;5135305;56;1139066;-73
2022/10/05 10:09:46;;;;;;;6.37;2.80;;;;;;;15.79;87.98;100994.77;5140923;56;1136975;-70
2022/10/05 10:15:06;;;;;;;17.63;6.97;;;;;;;16.02;88.00;101004.17;5226532;56;1136940;-69
2022/10/05 10:20:39;;;;;;;19.87;3.90;;;;;;;16.13;84.50;101000.00;5231961;56;1139016;-66
2022/10/05 10:26:13;;;;;;;19.13;7.80;;;;;;;16.30;85.89;100998.92;5278889;56;1141111;-69
2022/10/05 10:31:38;;;;;;;10.97;3.17;;;;;;;16.49;83.62;101001.55;5278515;56;1141139;-71
2022/10/05 10:37:15;;;;;;;12.37;3.80;;;;;;;16.65;83.23;100992.42;5278438;55;1141089;-70
2022/10/05 10:42:46;;;;;;;6.43;2.83;;;;;;;16.77;81.75;100978.41;5282924;55;1141118;-69
2022/10/05 10:48:05;;;;;;;17.73;9.70;;;;;;;16.93;80.88;100979.11;5303085;55;1139001;-68
2022/10/05 10:53:36;;;;;;;7.85;2.37;;;;;;;17.03;80.48;100973.20;5277898;55;1141348;-71
2022/10/05 10:58:53;;;;;;;8.20;2.63;;;;;;;17.10;82.03;100971.14;5222277;56;1138979;-69
2022/10/05 11:04:28;;;;;;;8.73;3.53;;;;;;;17.22;81.60;100961.91;5222474;56;1136987;-70
2022/10/05 11:09:47;;;;;;;6.50;2.43;;;;;;;17.33;82.29;100955.98;5249050;55;1137140;-67
2022/10/05 11:15:23;;;;;;;8.03;3.97;;;;;;;17.46;80.82;100959.12;5190767;56;1137149;-67
2022/10/05 11:20:45;;;;;;;5.97;3.07;;;;;;;17.56;79.98;100967.92;5219784;56;1134942;-66
2022/10/05 11:26:10;;;;;;;3.47;2.45;;;;;;;17.66;79.81;100962.02;5222456;56;1139048;-67
2022/10/05 11:31:56;;;;;;;7.40;2.53;;;;;;;17.68;78.62;100974.75;5195322;56;1139035;-68
2022/10/05 11:37:30;;;;;;;4.93;2.50;;;;;;;17.56;78.63;100979.47;5222267;56;1139009;-68
2022/10/05 11:43:15;;;;;;;8.00;3.20;;;;;;;17.50;80.67;100984.57;5234154;56;1139233;-71
2022/10/05 11:48:37;;;;;;;3.85;2.47;;;;;;;17.48;80.49;100975.86;5183932;56;1139088;-68
2022/10/05 11:53:56;;;;;;;2.77;1.60;;;;;;;17.42;80.67;100969.27;5178135;56;1139020;-68
2022/10/05 11:59:33;;;;;;;5.23;2.30;;;;;;;17.41;78.53;100965.44;5186707;56;1139086;-68
2022/10/05 12:05:14;;;;;;;8.77;1.93;;;;;;;17.45;79.05;100949.41;5193495;56;1136975;-68
2022/10/05 12:10:38;;;;;;;9.50;1.93;;;;;;;17.48;78.34;100948.62;5192238;56;1136982;-68
2022/10/05 12:16:03;;;;;;;4.70;2.20;;;;;;;17.48;77.92;100935.25;5209922;56;1135148;-71
2022/10/05 12:21:26;;;;;;;12.23;2.27;;;;;;;17.71;81.43;100920.10;5216235;56;1138972;-69
2022/10/05 12:26:43;;;;;;;;;;;;;;;17.94;78.58;100918.59;5168217;56;1141421;-72
2022/10/05 12:32:03;;;;;;;3.23;1.67;;;;;;;18.19;78.41;100924.42;5214447;56;976407;-68
2022/10/05 12:37:41;;;;;;;6.52;2.06;;;;;;;18.18;75.25;100923.28;5177178;57;1136969;-70
2022/10/05 12:43:03;;;;;;;8.93;2.37;;;;;;;18.14;77.43;100925.92;5151807;56;1139338;-71
2022/10/05 12:48:36;;;;;;;6.80;2.27;;;;;;;18.04;78.05;100904.59;5172269;56;1139029;-69
2022/10/05 12:54:01;;;;;;;2.13;1.90;;;;;;;18.02;79.24;100920.00;5162068;56;1139448;-71
2022/10/05 12:59:56;;;;;;;4.42;1.92;;;;;;;17.99;78.69;100908.77;5131821;57;1139619;-68
2022/10/05 13:05:07;;;;;;;4.07;2.30;;;;;;;17.95;79.95;100911.41;5118695;57;1137183;-70
2022/10/05 13:10:44;;;;;;;5.73;1.90;;;;;;;17.84;77.35;100907.16;5147100;56;1137026;-69
2022/10/05 13:16:03;;;;;;;6.07;2.03;;;;;;;17.74;76.61;100895.19;5093799;57;1135041;-68
2022/10/05 13:21:25;;;;;;;3.20;2.03;;;;;;;17.72;78.15;100888.34;5200354;56;1139019;-69
2022/10/05 13:26:36;;;;;;;8.00;1.87;;;;;;;17.72;78.71;100888.34;5221894;56;1139270;-68
2022/10/05 13:31:57;;;;;;;2.83;1.67;;;;;;;17.72;78.47;100881.66;5221803;56;1139202;-67
2022/10/05 13:37:24;;;;;;;4.30;2.33;;;;;;;17.68;78.60;100865.56;5233428;55;1139035;-69
2022/10/05 13:42:37;;;;;;;6.97;1.50;;;;;;;17.70;79.95;100876.45;5262496;56;1139275;-69
2022/10/05 13:48:15;;;;;;;5.47;2.20;;;;;;;17.68;79.28;100873.59;5225195;56;1139008;-69
2022/10/05 13:53:29;;;;;;;7.27;2.20;;;;;;;17.70;80.40;100875.13;5232530;56;1139031;-67
2022/10/05 13:58:58;;;;;;;11.47;2.73;;;;;;;17.77;80.61;100876.66;5278576;55;1139026;-68
2022/10/05 14:04:23;;;;;;;11.88;2.27;;;;;;;17.82;81.14;100871.69;5232122;55;1141003;-66
2022/10/05 14:09:35;;;;;;;3.15;1.80;;;;;;;17.86;80.16;100862.35;5191049;55;1141367;-72
2022/10/05 14:14:55;;;;;;;5.60;2.40;;;;;;;17.85;80.21;100870.04;5225511;56;1137129;-66
2022/10/05 14:20:20;;;;;;;4.12;2.15;;;;;;;17.83;79.96;100874.70;5186665;56;1137117;-69
2022/10/05 14:25:29;;;;;;;7.40;1.92;;;;;;;17.76;81.13;100867.79;5096267;57;1137079;-69
2022/10/05 14:30:35;;;;;;;4.30;2.10;;;;;;;17.73;81.97;100861.41;5171743;56;1137117;-69
2022/10/05 14:35:51;;;;;;;12.77;2.37;;;;;;;17.71;82.51;100864.77;5161301;56;1136854;-67
2022/10/05 14:41:21;;;;;;;4.17;2.40;;;;;;;17.64;82.83;100858.34;5141880;56;1139045;-69
2022/10/05 14:46:35;;;;;;;9.97;2.73;;;;;;;17.63;83.21;100852.62;5141571;56;1138997;-67
2022/10/05 14:51:38;;;;;;;14.38;6.95;;;;;;;17.55;83.38;100848.06;5133965;57;1139044;-69
2022/10/05 14:57:05;;;;;;;16.80;8.76;;;;;;;17.53;84.26;100842.53;5186672;56;1141161;-68
2022/10/05 15:03:02;;;;;;;18.73;12.53;;;;;;;17.53;84.50;100843.37;5214570;56;1141274;-69
2022/10/05 15:08:37;;;;;;;9.10;4.40;;;;;;;17.55;84.85;100827.17;5165663;56;1143108;-69
2022/10/05 15:13:47;;;;;;;10.10;2.90;;;;;;;17.62;85.12;100816.16;5163623;56;1138990;-68
2022/10/05 15:19:19;;;;;;;9.03;3.60;;;;;;;17.82;84.96;100808.31;5171843;56;1141135;-65
2022/10/05 15:24:30;;;;;;;10.72;5.85;;;;;;;17.93;85.18;100816.55;5202010;55;1139067;-66
2022/10/05 15:30:10;;;;;;;10.03;4.12;;;;;;;18.02;84.43;100803.57;5196858;56;1141551;-69
2022/10/05 15:35:39;;;;;;;9.93;3.02;;;;;;;18.09;84.45;100799.73;5190636;55;1139013;-70
2022/10/05 15:41:07;;;;;;;6.56;2.84;;;;;;;18.70;86.77;100791.92;5189772;55;1137050;-69
2022/10/05 15:46:27;;;;;;;12.20;6.70;;;;;;;19.59;81.62;100788.75;5189833;56;1136976;-66
2022/10/05 15:51:49;;;;;;;14.30;7.05;;;;;;;19.25;78.64;100783.56;5201065;56;1141230;-65
2022/10/05 15:57:01;;;;;;;9.08;4.15;;;;;;;19.12;80.25;100781.06;5175768;56;1141125;-67
2022/10/05 16:02:12;;;;;;;19.05;7.12;;;;;;;18.97;79.56;100780.89;5200225;55;1139229;-69
2022/10/05 16:13:06;;;;;;;13.18;4.58;;;;;;;18.11;81.13;100780.34;5189875;56;1139138;-68
2022/10/05 16:18:44;;;;;;;53.80;23.02;;;;;;;17.78;82.19;100785.53;5174642;56;1141088;-68
2022/10/05 16:24:29;;;;;;;18.85;8.13;;;;;;;17.50;83.07;100792.86;5185241;56;1143172;-67
2022/10/05 16:29:57;;;;;;;15.83;5.10;;;;;;;17.30;83.97;100798.05;5204673;56;1141354;-66
2022/10/05 16:35:32;;;;;;;11.93;4.07;;;;;;;17.15;84.65;100792.42;5128067;56;1139063;-69
2022/10/05 16:41:03;;;;;;;19.20;8.70;;;;;;;17.06;85.15;100793.86;5131447;56;1139429;-68
2022/10/05 16:46:22;;;;;;;127.07;70.87;;;;;;;16.96;85.61;100794.45;5219643;55;1139047;-65
2022/10/05 16:51:53;;;;;;;123.87;79.23;;;;;;;16.89;85.67;100792.87;5184313;56;1143583;-71
2022/10/05 16:57:24;;;;;;;47.70;25.63;;;;;;;16.82;86.02;100802.47;5165512;56;1145270;-70
2022/10/05 17:03:03;;;;;;;55.17;35.47;;;;;;;16.73;86.42;100802.91;5263713;55;1143175;-71
2022/10/05 17:08:32;;;;;;;42.33;20.20;;;;;;;16.61;86.74;100810.77;5073967;57;1143225;-70
2022/10/05 17:13:59;;;;;;;67.97;36.70;;;;;;;16.46;87.11;100806.44;5016565;58;1143298;-71
2022/10/05 17:19:33;;;;;;;193.20;76.27;;;;;;;16.37;87.49;100806.47;5026511;58;1143383;-71
2022/10/05 17:25:11;;;;;;;80.67;36.50;;;;;;;16.33;87.75;100809.11;5039947;58;1145424;-69
2022/10/05 17:30:33;;;;;;;157.00;58.60;;;;;;;16.30;87.99;100810.74;5066296;58;1141296;-71
2022/10/05 17:36:07;;;;;;;257.23;108.60;;;;;;;16.23;88.28;100805.63;5066164;58;1143277;-69
2022/10/05 17:41:21;;;;;;;192.40;87.97;;;;;;;16.23;88.81;100810.97;5134009;56;1145349;-69
2022/10/05 17:46:43;;;;;;;186.40;75.73;;;;;;;16.17;88.69;100804.42;5217532;56;1143381;-70
2022/10/05 17:57:29;;;;;;;58.10;20.83;;;;;;;15.83;89.38;100800.14;5221961;56;1143319;-67
2022/10/05 18:02:39;;;;;;;50.10;17.03;;;;;;;15.70;89.77;100796.95;5186871;56;1143207;-67
2022/10/05 18:07:48;;;;;;;49.73;29.00;;;;;;;15.61;90.41;100787.14;5190217;55;1143056;-70
2022/10/05 18:13:34;;;;;;;37.53;18.13;;;;;;;15.54;91.49;100790.02;5170345;55;1143270;-71
2022/10/05 18:18:56;;;;;;;14.40;7.67;;;;;;;15.47;91.66;100783.92;5307640;55;1143155;-71
2022/10/05 18:24:14;;;;;;;11.27;7.10;;;;;;;15.46;92.39;100785.39;5225179;55;1141144;-68
2022/10/05 18:30:04;;;;;;;18.97;10.63;;;;;;;15.44;92.19;100778.87;5280979;55;1141153;-68
2022/10/05 18:35:37;;;;;;;13.23;7.27;;;;;;;15.41;92.16;100781.00;5254737;55;1143189;-67
2022/10/05 18:41:32;;;;;;;24.37;12.30;;;;;;;15.36;92.15;100781.43;5231388;55;1139297;-66
2022/10/05 18:46:54;;;;;;;28.25;13.25;;;;;;;15.31;92.38;100776.17;5246770;56;1141155;-70
2022/10/05 18:52:13;;;;;;;16.03;10.37;;;;;;;15.28;92.50;100779.95;5230865;55;1139274;-67
2022/10/05 18:57:56;;;;;;;19.27;8.53;;;;;;;15.26;92.52;100788.61;5156554;56;1143411;-67
2022/10/05 19:03:15;;;;;;;20.17;10.20;;;;;;;15.21;92.43;100786.02;5165121;56;1141162;-67
2022/10/05 19:08:48;;;;;;;21.13;11.77;;;;;;;15.11;92.66;100793.53;5142518;56;1143110;-67
2022/10/05 19:14:14;;;;;;;23.45;8.95;;;;;;;14.99;92.81;100791.13;5146314;56;1143212;-67
2022/10/05 19:19:50;;;;;;;22.13;11.17;;;;;;;14.91;92.98;100797.17;5190667;56;1141095;-70
2022/10/05 19:25:26;;;;;;;20.97;8.83;;;;;;;14.86;92.98;100804.73;5182395;56;1143112;-70
2022/10/05 19:30:52;;;;;;;24.00;8.17;;;;;;;14.82;92.99;100809.98;5174062;56;1141155;-67
2022/10/05 19:36:17;;;;;;;35.03;14.20;;;;;;;14.79;93.14;100806.28;5184835;56;1139243;-70
2022/10/05 19:41:28;;;;;;;21.97;10.63;;;;;;;14.83;92.88;100806.83;5172517;56;1141251;-67
2022/10/05 19:47:02;;;;;;;20.57;12.07;;;;;;;14.85;92.69;100806.20;5133056;55;1141172;-70
2022/10/05 19:52:22;;;;;;;24.67;10.07;;;;;;;14.81;92.48;100816.31;5230504;56;1140936;-67
2022/10/05 19:57:27;;;;;;;18.60;9.50;;;;;;;14.68;92.45;100817.88;5271740;56;1143248;-70
2022/10/05 20:02:34;;;;;;;35.68;11.80;;;;;;;14.61;92.65;100818.09;5249359;56;1141163;-67
2022/10/05 20:07:40;;;;;;;29.73;10.37;;;;;;;14.54;92.68;100820.10;5191281;56;1143182;-71
2022/10/05 20:12:56;;;;;;;25.03;11.73;;;;;;;14.53;92.76;100825.07;5191698;55;1143220;-68
2022/10/05 20:23:45;;;;;;;27.22;10.95;;;;;;;14.42;92.96;100832.20;5234158;55;1143196;-67
2022/10/05 20:28:51;;;;;;;21.60;8.07;;;;;;;14.30;93.46;100845.23;5226297;56;1143225;-66
2022/10/05 20:33:58;;;;;;;10.33;5.10;;;;;;;14.26;93.77;100849.12;5233771;55;1141591;-71
2022/10/05 20:39:05;;;;;;;16.73;6.37;;;;;;;14.17;94.69;100856.59;5278638;55;1141065;-71
2022/10/05 20:44:12;;;;;;;10.27;5.57;;;;;;;14.17;94.69;100856.59;5278683;56;1141088;-71
2022/10/05 20:49:21;;;;;;;9.40;5.80;;;;;;;14.17;94.84;100852.61;5290056;55;1141241;-69
2022/10/05 20:54:27;;;;;;;14.87;5.37;;;;;;;14.13;95.01;100857.84;5212952;55;1139053;-68
2022/10/05 20:59:35;;;;;;;14.03;5.80;;;;;;;14.12;95.44;100853.97;5052108;58;1141122;-67
2022/10/05 21:04:45;;;;;;;13.73;6.00;;;;;;;14.08;95.60;100854.72;5110074;57;1141045;-68
2022/10/05 21:09:47;;;;;;;8.77;4.93;;;;;;;14.10;95.58;100858.09;5052767;58;1141153;-70
2022/10/05 21:14:53;;;;;;;11.40;4.77;;;;;;;14.08;95.85;100852.06;5058233;57;1139307;-70
2022/10/05 21:20:00;;;;;;;10.00;4.20;;;;;;;14.04;96.04;100862.64;5192826;56;1141181;-67
2022/10/05 21:25:07;;;;;;;6.47;3.63;;;;;;;14.02;96.34;100868.57;5221190;56;1141075;-68
2022/10/05 21:30:13;;;;;;;11.87;5.10;;;;;;;13.95;96.78;100864.25;5164601;57;1138976;-71
2022/10/05 21:35:18;;;;;;;15.80;5.13;;;;;;;13.93;96.71;100866.69;5190293;56;1141252;-65
2022/10/05 21:40:24;;;;;;;10.60;4.40;;;;;;;13.87;97.26;100869.89;5190283;57;1141130;-66
2022/10/05 21:45:31;;;;;;;8.73;5.03;;;;;;;13.83;97.73;100875.11;5212190;56;1141299;-66
2022/10/05 21:50:38;;;;;;;9.50;4.90;;;;;;;13.81;97.50;100867.25;5252218;55;1139043;-68
2022/10/05 21:55:47;;;;;;;5.07;3.97;;;;;;;13.80;97.79;100874.03;5176337;56;1139036;-67
2022/10/05 22:00:53;;;;;;;10.07;4.77;;;;;;;13.78;97.85;100870.17;5134354;57;1138427;-65
2022/10/05 22:05:59;;;;;;;7.40;4.50;;;;;;;13.80;98.13;100863.40;5052403;58;1141222;-68
2022/10/05 22:11:18;;;;;;;8.63;4.23;;;;;;;13.79;98.43;100868.36;5052889;58;1139059;-68
2022/10/05 22:16:25;;;;;;;8.00;4.37;;;;;;;13.78;98.60;100868.84;5135723;57;1136954;-66
2022/10/05 22:21:36;;;;;;;11.47;4.57;;;;;;;13.77;98.77;100872.47;5134146;56;1136961;-70
2022/10/05 22:26:44;;;;;;;8.97;4.23;;;;;;;13.77;98.75;100875.61;5197426;56;1139211;-70
2022/10/05 22:31:50;;;;;;;14.60;4.70;;;;;;;13.76;98.79;100869.94;5222205;55;1137051;-71
2022/10/05 22:36:55;;;;;;;9.23;4.47;;;;;;;13.70;99.42;100876.16;5222334;56;1139235;-68
2022/10/05 22:42:04;;;;;;;8.20;4.77;;;;;;;13.69;99.26;100880.27;5222429;56;1136970;-69
2022/10/05 22:47:10;;;;;;;7.77;4.83;;;;;;;13.64;99.68;100879.80;5222257;56;1136916;-70
2022/10/05 22:52:16;;;;;;;7.33;4.07;;;;;;;13.61;99.42;100875.59;5223909;55;1136994;-67
2022/10/05 22:57:22;;;;;;;8.33;5.10;;;;;;;13.59;99.76;100875.39;5133760;57;1136985;-65
2022/10/05 23:02:28;;;;;;;12.90;5.27;;;;;;;13.52;100.00;100876.86;5131072;57;1136921;-70
2022/10/05 23:07:48;;;;;;;10.63;5.23;;;;;;;13.49;100.00;100875.30;5132635;57;1141140;-65
2022/10/05 23:12:57;;;;;;;6.97;4.60;;;;;;;13.47;100.00;100881.70;5134968;57;1139231;-66
2022/10/05 23:18:03;;;;;;;9.80;5.57;;;;;;;13.43;100.00;100885.63;5156662;57;1141115;-68
2022/10/05 23:23:09;;;;;;;8.28;4.70;;;;;;;13.40;100.00;100893.36;5121611;56;1141116;-69
2022/10/05 23:28:15;;;;;;;8.73;5.33;;;;;;;13.40;100.00;100886.71;5132369;56;1140792;-67
2022/10/05 23:33:21;;;;;;;10.03;4.83;;;;;;;13.35;100.00;100892.40;5128927;57;1141037;-68
2022/10/05 23:38:27;;;;;;;13.73;4.93;;;;;;;13.35;100.00;100891.55;5156494;55;1143376;-69
2022/10/05 23:43:34;;;;;;;6.07;4.47;;;;;;;13.33;100.00;100889.50;5186848;55;1143136;-69
2022/10/05 23:48:40;;;;;;;7.95;4.92;;;;;;;13.30;100.00;100899.90;5239464;55;1140969;-69
2022/10/05 23:53:46;;;;;;;7.63;4.97;;;;;;;13.29;100.00;100900.05;5195784;56;1141139;-68
2022/10/05 23:58:52;;;;;;;9.93;5.60;;;;;;;13.29;100.00;100902.71;5132362;57;1141320;-68
